Friday, March 27, 2015
22:12 UTC
  |  Log In   |  Register Free
Airport Search:

Chanute Martin Johnson Airport
(KCNU)

Chanute Martin Johnson Airport Diagram
No Airport Diagram Available

FAA data valid effective March 05, 2015 - April 30, 2015 (unless otherwise noted).

 
 
 
 
 
 
 
 
 
 
 
 
 
 

Current Aviation Weather for Chanute Martin Johnson Airport (KCNU)

The most recent METAR observation for KCNU was updated at: 1408
METAR Summary (Translated METAR)
KCNU
251352Z AUTO 08004KT 6SM BR CLR 10/08 A2997 RMK AO2 SLP146 T01000078
KPPF
251352Z AUTO VRB04KT 8SM CLR 11/08 A2996 RMK AO2 SLP142 T01060083
(20.3 nm SW from KCNU)
KIDP
251355Z AUTO 08006KT 7SM CLR 10/08 A2993 RMK AO2
(33.7 nm SW from KCNU)
TAF Summary (Translated TAF)
KCNU
251139Z 2512/2612 11007KT 4SM BR BKN150 FM251400 11009KT P6SM BKN150 FM251700 10013KT P6SM VCTS OVC050CB FM251900 06016G23KT P6SM VCTS OVC040CB FM252100 05023G31KT P6SM VCTS OVC040CB FM260000 01023G31KT 6SM -RA VCTS SCT015 OVC025CB
  Airport Weather Conditions for KCNU

 Current Weather at CNU
50° F
Fair
Northeast winds at 5.8 mph
CNU NOAA Radar

Pressure: 30.16 in
Humidity: 35%
Wind: Northeast at 5.8 MPH (5 KT)
Dew Point: 23.0°F
Visibility: 10.00 mi


Airport Weather Forecast for KCNU

Translated METAR and TAF for KCNU
Translated METAR for KCNU (2211 UTC 27 March 2015)
found at http://aviationweather.gov/adds/metars/
 
METAR text: KCNU 272152Z AUTO 36007KT 10SM CLR 11/M05 A3014 RMK AO2 SLP208 T01061050
Conditions at: KCNU (CHANUTE , KS, US) observed 2152 UTC 27 March 2015
Temperature: 10.6°C (51°F)
Dewpoint: -5.0°C (23°F) [RH = 33%]
Pressure (altimeter): 30.14 inches Hg (1020.7 mb)
[Sea-level pressure: 1020.8 mb]
Winds: from the N (360 degrees) at 8 MPH (7 knots; 3.6 m/s)
Visibility: 10 or more miles (16+ km)
Ceiling: at least 12,000 feet AGL
Clouds: sky clear below 12,000 feet AGL
Weather: automated observation with no human augmentation;
there may or may not be significant weather present at this time
Translated TAF for KCNU
Forecast for: KCNU (CHANUTE , KS, US)
TAF Text: KCNU 271721Z 2718/2818 02009KT P6SM SCT035 SCT050
Forecast period: 1800 to 2100 UTC 27 March 2015
Forecast type: FROM: standard forecast or significant change
Winds: from the NNE (20 degrees) at 10 MPH (9 knots; 4.7 m/s)
Visibility: 6 or more miles (10+ km)
Clouds: scattered clouds at 3500 feet AGL
scattered clouds at 5000 feet AGL
Weather: no significant weather forecast for this period
TAF Text: FM272100 VRB06KT P6SM BKN100
Forecast period: 2100 UTC 27 March 2015 to 1800 UTC 28 March 2015
Forecast type: FROM: standard forecast or significant change
Winds: variable direction winds at 7 MPH (6 knots; 3.1 m/s)
Visibility: 6 or more miles (10+ km)
Ceiling: 10000 feet AGL
Clouds: broken clouds at 10000 feet AGL
Weather: no significant weather forecast for this period

Find All Airport Services Find A Hotel Find A Rental Car Find A Golf Course Find A Restaurant $100 Hamburger



FBO's on the Field
FBO Company Facility Photos Services Transportation Aviation Fuel Prices: Prices include tax
Catering Weather Repair Courtesy Rental Type 100LL JetA JetA+ MOGAS 8087
 
City of Chanute

This FBO has not yet been rated
FS:Phillips 66
Last Updated: Mar-04
Login to update fuel prices
SS:
Contact City of ChanuteMore FBO Information
 
Add another FBO Facility Photos Catering Weather Repair Courtesy Rental Type 100LL JetA JetA+ MOGAS 8087
Services Transportation Aviation Fuel Prices: Prices include tax


model-print
model-print
model-print
model-print